createdAt,value
2018-07-30T00:01:25.123Z,96.30
2018-07-30T00:03:53.728Z,96.10
2018-07-30T00:06:22.374Z,97.00
2018-07-30T00:08:50.976Z,97.10
2018-07-30T00:11:19.552Z,97.20
2018-07-30T00:13:48.156Z,97.80
2018-07-30T00:16:16.744Z,97.20
2018-07-30T00:18:45.340Z,97.20
2018-07-30T00:21:13.928Z,98.00
2018-07-30T00:23:42.539Z,98.20
2018-07-30T00:26:11.134Z,98.20
2018-07-30T00:28:39.708Z,98.20
2018-07-30T00:31:08.321Z,97.40
2018-07-30T00:33:36.945Z,97.30
2018-07-30T00:36:05.517Z,97.70
2018-07-30T00:38:34.144Z,98.00
2018-07-30T00:41:02.735Z,97.40
2018-07-30T00:43:31.363Z,98.70
2018-07-30T00:45:59.985Z,98.20
2018-07-30T00:48:28.596Z,98.50
2018-07-30T00:50:57.250Z,97.80
2018-07-30T00:53:25.856Z,98.80
2018-07-30T00:55:54.473Z,97.80
2018-07-30T00:58:23.120Z,98.10
2018-07-30T01:00:51.764Z,98.00
2018-07-30T01:03:20.320Z,99.00
2018-07-30T01:05:48.959Z,98.30
2018-07-30T01:08:17.584Z,98.20
2018-07-30T01:10:46.176Z,98.40
2018-07-30T01:13:14.740Z,98.50
2018-07-30T01:15:43.396Z,99.80
2018-07-30T01:20:40.365Z,99.20
2018-07-30T01:23:09.169Z,98.70
2018-07-30T01:25:43.559Z,98.60
2018-07-30T01:28:12.133Z,99.00
2018-07-30T01:30:40.711Z,99.30
2018-07-30T01:33:09.318Z,98.90
2018-07-30T01:35:37.956Z,99.80
2018-07-30T01:38:06.695Z,98.90
2018-07-30T01:40:35.267Z,99.40
2018-07-30T01:43:03.901Z,98.80
2018-07-30T01:45:32.500Z,99.10
2018-07-30T01:50:29.308Z,99.90
2018-07-30T01:52:57.906Z,99.00
2018-07-30T01:55:26.592Z,99.90
2018-07-30T01:57:55.165Z,99.00
2018-07-30T02:00:23.744Z,99.80
2018-07-30T02:02:52.373Z,99.90
2018-07-30T02:05:20.983Z,99.60
2018-07-30T02:07:49.624Z,99.90
2018-07-30T02:10:18.214Z,99.90
2018-07-30T02:12:46.822Z,99.60
2018-07-30T02:15:16.553Z,99.90
2018-07-30T02:17:45.430Z,99.90
2018-07-30T02:20:14.025Z,99.20
2018-07-30T02:22:42.718Z,99.50
2018-07-30T02:25:11.288Z,99.60
2018-07-30T02:27:39.873Z,99.90
2018-07-30T02:30:09.506Z,99.90
2018-07-30T02:32:38.156Z,99.90
2018-07-30T02:35:08.259Z,99.90
2018-07-30T02:37:36.903Z,99.90
2018-07-30T02:40:06.081Z,99.90
2018-07-30T02:42:34.692Z,99.90
2018-07-30T02:45:03.364Z,99.90
2018-07-30T02:47:31.933Z,99.90
2018-07-30T02:50:00.516Z,99.90
2018-07-30T02:52:29.216Z,99.90
2018-07-30T02:54:57.786Z,99.90
2018-07-30T02:57:26.500Z,99.90
2018-07-30T02:59:55.082Z,99.90
2018-07-30T03:02:23.662Z,99.90
2018-07-30T03:04:52.266Z,99.90
2018-07-30T03:07:20.851Z,99.90
2018-07-30T03:09:49.415Z,99.90
2018-07-30T03:12:18.013Z,99.90
2018-07-30T03:14:46.659Z,99.90
2018-07-30T03:19:43.477Z,99.90
2018-07-30T03:22:12.224Z,99.90
2018-07-30T03:24:40.784Z,99.90
2018-07-30T03:27:09.344Z,99.90
2018-07-30T03:29:37.889Z,99.90
2018-07-30T03:32:06.544Z,99.90
2018-07-30T03:34:35.126Z,99.90
2018-07-30T03:37:03.752Z,99.90
2018-07-30T03:39:32.314Z,99.90
2018-07-30T03:42:00.885Z,99.90
2018-07-30T03:44:29.470Z,99.90
2018-07-30T03:46:58.004Z,99.90
2018-07-30T03:49:26.630Z,99.90
2018-07-30T03:51:55.193Z,99.90
2018-07-30T03:54:23.810Z,99.90
2018-07-30T03:56:52.353Z,99.90
2018-07-30T03:59:20.985Z,99.90
2018-07-30T04:01:49.628Z,99.90
2018-07-30T04:04:18.209Z,99.90
2018-07-30T04:06:46.801Z,99.90
2018-07-30T04:09:15.437Z,99.90
2018-07-30T04:11:44.048Z,99.90
2018-07-30T04:14:12.650Z,99.90
2018-07-30T04:16:46.563Z,99.90
2018-07-30T04:19:15.215Z,99.90
2018-07-30T04:21:43.880Z,99.90
2018-07-30T04:24:12.428Z,99.90
2018-07-30T04:29:09.336Z,99.90
2018-07-30T04:31:37.947Z,99.90
2018-07-30T04:34:06.601Z,99.90
2018-07-30T04:36:35.353Z,99.90
2018-07-30T04:39:05.830Z,99.90
2018-07-30T04:41:34.466Z,99.90
2018-07-30T04:44:03.146Z,99.90
2018-07-30T04:46:31.752Z,99.90
2018-07-30T04:49:01.243Z,99.90
2018-07-30T04:51:29.865Z,99.90
2018-07-30T04:53:58.618Z,99.90
2018-07-30T04:56:27.251Z,99.90
2018-07-30T04:58:55.981Z,99.90
2018-07-30T05:01:24.570Z,99.90
2018-07-30T05:03:53.292Z,99.90
2018-07-30T05:06:21.938Z,99.90
2018-07-30T05:08:50.520Z,99.90
2018-07-30T05:11:19.655Z,99.90
2018-07-30T05:13:48.709Z,99.90
2018-07-30T05:16:17.318Z,99.90
2018-07-30T05:18:46.069Z,99.90
2018-07-30T05:21:14.711Z,99.90
2018-07-30T05:23:43.323Z,99.90
2018-07-30T05:26:11.958Z,99.90
2018-07-30T05:31:08.899Z,99.90
2018-07-30T05:33:37.528Z,99.90
2018-07-30T05:36:06.111Z,99.90
2018-07-30T05:38:34.727Z,99.90
2018-07-30T05:41:03.364Z,99.90
2018-07-30T05:43:31.973Z,99.90
2018-07-30T05:46:00.530Z,99.90
2018-07-30T05:48:29.142Z,99.90
2018-07-30T05:50:57.768Z,99.90
2018-07-30T05:53:26.406Z,99.90
2018-07-30T05:55:55.049Z,99.90
2018-07-30T05:58:23.720Z,99.90
2018-07-30T06:00:52.381Z,99.90
2018-07-30T06:03:20.990Z,99.90
2018-07-30T06:05:49.641Z,99.90
2018-07-30T06:08:18.229Z,99.90
2018-07-30T06:10:46.847Z,99.90
2018-07-30T06:13:15.454Z,99.90
2018-07-30T06:15:44.119Z,99.90
2018-07-30T06:20:41.042Z,99.90
2018-07-30T06:23:09.764Z,99.90
2018-07-30T06:25:38.352Z,99.90
2018-07-30T06:28:07.014Z,99.90
2018-07-30T06:30:35.666Z,99.90
2018-07-30T06:33:04.390Z,99.90
2018-07-30T06:35:33.040Z,99.90
2018-07-30T06:38:01.659Z,99.90
2018-07-30T06:40:30.368Z,99.60
2018-07-30T06:42:59.084Z,99.30
2018-07-30T06:45:27.740Z,98.60
2018-07-30T06:47:56.404Z,98.80
2018-07-30T06:50:24.998Z,98.80
2018-07-30T06:52:53.617Z,98.20
2018-07-30T06:55:22.189Z,98.00
2018-07-30T06:57:50.850Z,98.00
2018-07-30T07:00:19.639Z,98.20
2018-07-30T07:02:48.304Z,97.50
2018-07-30T07:05:16.935Z,97.40
2018-07-30T07:07:45.958Z,97.30
2018-07-30T07:10:14.614Z,97.00
2018-07-30T07:12:43.270Z,96.90
2018-07-30T07:15:14.180Z,97.30
2018-07-30T07:17:43.769Z,97.00
2018-07-30T07:20:12.411Z,97.20
2018-07-30T07:22:41.049Z,97.00
2018-07-30T07:25:09.713Z,97.20
2018-07-30T07:27:38.345Z,96.90
2018-07-30T07:30:08.093Z,96.60
2018-07-30T07:32:36.745Z,96.30
2018-07-30T07:35:05.854Z,96.20
2018-07-30T07:37:34.548Z,96.20
2018-07-30T07:40:03.202Z,96.00
2018-07-30T07:42:31.885Z,95.90
2018-07-30T07:45:00.574Z,95.80
2018-07-30T07:47:29.081Z,96.40
2018-07-30T07:49:57.837Z,95.70
2018-07-30T07:52:26.506Z,95.80
2018-07-30T07:54:55.112Z,95.50
2018-07-30T07:57:24.009Z,94.80
2018-07-30T07:59:52.741Z,94.70
2018-07-30T08:02:21.391Z,94.60
2018-07-30T08:04:50.018Z,94.20
2018-07-30T08:07:18.715Z,94.30
2018-07-30T08:09:47.421Z,94.20
2018-07-30T08:12:16.081Z,94.80
2018-07-30T08:14:44.685Z,94.50
2018-07-30T08:17:13.361Z,94.50
2018-07-30T08:19:41.999Z,93.40
2018-07-30T08:22:10.712Z,93.70
2018-07-30T08:24:39.312Z,93.60
2018-07-30T08:27:08.021Z,93.60
2018-07-30T08:29:37.128Z,93.60
2018-07-30T08:32:05.845Z,93.00
2018-07-30T08:34:34.548Z,92.80
2018-07-30T08:37:03.231Z,93.60
2018-07-30T08:42:00.487Z,92.90
2018-07-30T08:44:29.138Z,93.10
2018-07-30T08:46:58.399Z,93.00
2018-07-30T08:49:27.010Z,92.40
2018-07-30T08:51:55.649Z,92.50
2018-07-30T08:54:24.208Z,92.30
2018-07-30T08:56:52.874Z,92.70
2018-07-30T08:59:21.494Z,93.60
2018-07-30T09:01:50.142Z,92.60
2018-07-30T09:06:47.008Z,93.20
2018-07-30T09:09:15.645Z,91.60
2018-07-30T09:11:44.266Z,91.50
2018-07-30T09:14:12.885Z,91.60
2018-07-30T09:16:41.521Z,91.40
2018-07-30T09:19:10.110Z,91.70
2018-07-30T09:21:38.819Z,91.30
2018-07-30T09:24:07.409Z,91.30
2018-07-30T09:26:36.003Z,91.00
2018-07-30T09:29:04.723Z,91.20
2018-07-30T09:31:33.385Z,91.40
2018-07-30T09:37:36.819Z,91.60
2018-07-30T09:40:05.602Z,91.10
2018-07-30T09:42:34.224Z,90.50
2018-07-30T09:45:02.888Z,90.30
2018-07-30T09:47:32.146Z,90.60
2018-07-30T09:50:00.748Z,90.40
2018-07-30T09:52:29.346Z,90.20
2018-07-30T09:54:57.999Z,90.00
2018-07-30T09:57:26.692Z,90.00
2018-07-30T09:59:55.313Z,88.30
2018-07-30T10:02:24.840Z,89.00
2018-07-30T10:04:53.489Z,88.40
2018-07-30T10:07:22.081Z,88.20
2018-07-30T10:09:50.721Z,89.20
2018-07-30T10:12:19.405Z,88.80
2018-07-30T10:14:48.064Z,88.50
2018-07-30T10:17:16.700Z,88.90
2018-07-30T10:19:45.336Z,89.00
2018-07-30T10:22:14.021Z,88.00
2018-07-30T10:24:42.746Z,86.00
2018-07-30T10:27:11.316Z,86.10
2018-07-30T10:29:39.979Z,87.10
2018-07-30T10:32:08.652Z,86.00
2018-07-30T10:34:37.361Z,86.70
2018-07-30T10:37:06.693Z,86.10
2018-07-30T10:39:35.227Z,85.30
2018-07-30T10:42:03.941Z,85.20
2018-07-30T10:44:32.613Z,87.10
2018-07-30T10:47:01.220Z,85.70
2018-07-30T10:49:29.877Z,85.30
2018-07-30T10:51:58.554Z,85.00
2018-07-30T10:54:27.145Z,84.90
2018-07-30T10:56:55.730Z,84.30
2018-07-30T10:59:24.344Z,83.40
2018-07-30T11:01:52.974Z,84.40
2018-07-30T11:04:21.634Z,83.60
2018-07-30T11:06:50.308Z,83.60
2018-07-30T11:09:18.904Z,82.10
2018-07-30T11:11:47.550Z,83.60
2018-07-30T11:14:16.325Z,83.20
2018-07-30T11:16:45.129Z,81.90
2018-07-30T11:19:13.642Z,81.90
2018-07-30T11:21:43.957Z,83.10
2018-07-30T11:24:12.606Z,82.50
2018-07-30T11:26:41.207Z,83.00
2018-07-30T11:29:09.891Z,84.10
2018-07-30T11:31:38.574Z,82.00
2018-07-30T11:34:07.208Z,82.60
2018-07-30T11:36:35.871Z,84.00
2018-07-30T11:39:06.939Z,83.30
2018-07-30T11:41:35.519Z,83.10
2018-07-30T11:44:04.128Z,83.00
2018-07-30T11:46:32.821Z,80.60
2018-07-30T11:49:01.412Z,79.80
2018-07-30T11:51:30.196Z,80.10
2018-07-30T11:53:58.967Z,81.10
2018-07-30T11:56:27.618Z,80.40
2018-07-30T11:58:56.269Z,80.50
2018-07-30T12:01:25.594Z,79.70
2018-07-30T12:03:54.485Z,78.70
2018-07-30T12:06:23.095Z,79.30
2018-07-30T12:08:51.781Z,77.70
2018-07-30T12:11:20.407Z,78.80
2018-07-30T12:13:49.134Z,78.90
2018-07-30T12:16:17.791Z,77.90
2018-07-30T12:18:46.489Z,77.20
2018-07-30T12:21:15.303Z,76.20
2018-07-30T12:23:45.150Z,77.20
2018-07-30T12:26:13.716Z,77.60
2018-07-30T12:28:42.320Z,78.90
2018-07-30T12:31:11.016Z,77.10
2018-07-30T12:33:39.680Z,78.00
2018-07-30T12:36:08.281Z,77.70
2018-07-30T12:38:37.057Z,77.30
2018-07-30T12:41:05.750Z,77.90
2018-07-30T12:46:03.000Z,77.30
2018-07-30T12:48:31.773Z,77.80
2018-07-30T12:51:00.613Z,78.00
2018-07-30T12:53:29.409Z,78.40
2018-07-30T12:55:58.119Z,78.50
2018-07-30T12:58:27.275Z,78.40
2018-07-30T13:00:55.941Z,75.70
2018-07-30T13:03:24.703Z,74.90
2018-07-30T13:05:53.353Z,75.30
2018-07-30T13:08:22.254Z,75.50
2018-07-30T13:10:50.979Z,74.90
2018-07-30T13:13:19.644Z,76.90
2018-07-30T13:15:48.374Z,75.50
2018-07-30T13:18:16.995Z,75.90
2018-07-30T13:20:45.628Z,76.00
2018-07-30T13:23:14.303Z,74.90
2018-07-30T13:25:43.038Z,75.30
2018-07-30T13:28:12.184Z,73.60
2018-07-30T13:33:09.132Z,74.50
2018-07-30T13:35:37.895Z,72.40
2018-07-30T13:38:07.059Z,71.70
2018-07-30T13:40:35.912Z,72.20
2018-07-30T13:43:04.709Z,72.80
2018-07-30T13:45:33.549Z,72.30
2018-07-30T13:48:02.222Z,71.40
2018-07-30T13:50:31.169Z,71.10
2018-07-30T13:52:59.891Z,70.20
2018-07-30T13:55:28.596Z,71.20
2018-07-30T13:57:57.213Z,69.50
2018-07-30T14:00:25.851Z,70.50
2018-07-30T14:02:54.555Z,70.00
2018-07-30T14:05:23.174Z,69.90
2018-07-30T14:07:52.450Z,68.60
2018-07-30T14:10:21.164Z,67.60
2018-07-30T14:12:49.803Z,67.60
2018-07-30T14:15:18.494Z,66.50
2018-07-30T14:17:47.289Z,65.60
2018-07-30T14:20:16.088Z,66.80
2018-07-30T14:22:44.662Z,66.60
2018-07-30T14:25:13.612Z,66.30
2018-07-30T14:27:42.359Z,66.70
2018-07-30T14:30:11.251Z,66.20
2018-07-30T14:32:39.945Z,67.00
2018-07-30T14:37:36.895Z,66.80
2018-07-30T14:40:12.184Z,65.50
2018-07-30T14:42:41.130Z,66.40
2018-07-30T14:45:09.854Z,66.40
2018-07-30T14:47:38.704Z,66.40
2018-07-30T14:50:08.480Z,68.60
2018-07-30T14:52:37.406Z,67.70
2018-07-30T14:55:07.088Z,67.40
2018-07-30T14:57:35.693Z,67.00
2018-07-30T15:00:05.431Z,67.00
2018-07-30T15:02:34.293Z,67.60
2018-07-30T15:05:02.869Z,67.70
2018-07-30T15:07:31.723Z,67.90
2018-07-30T15:10:00.392Z,66.90
2018-07-30T15:12:29.256Z,66.20
2018-07-30T15:14:58.013Z,67.30
2018-07-30T15:17:27.009Z,68.70
2018-07-30T15:19:55.777Z,68.40
2018-07-30T15:22:24.401Z,69.50
2018-07-30T15:24:53.195Z,69.10
2018-07-30T15:27:21.841Z,68.90
2018-07-30T15:29:50.603Z,68.00
2018-07-30T15:32:19.391Z,67.60
2018-07-30T15:34:48.072Z,67.70
2018-07-30T15:37:17.580Z,67.70
2018-07-30T15:39:46.506Z,67.50
2018-07-30T15:42:15.450Z,67.70
2018-07-30T15:44:44.043Z,68.00
2018-07-30T15:49:41.043Z,68.60
2018-07-30T15:52:09.789Z,68.60
2018-07-30T15:54:38.483Z,68.90
2018-07-30T15:57:07.235Z,68.30
2018-07-30T15:59:35.919Z,68.20
2018-07-30T16:02:05.393Z,67.60
2018-07-30T16:04:34.147Z,68.80
2018-07-30T16:07:03.084Z,67.40
2018-07-30T16:09:31.988Z,67.80
2018-07-30T16:12:00.920Z,68.90
2018-07-30T16:14:29.932Z,67.40
2018-07-30T16:16:58.661Z,67.40
2018-07-30T16:19:27.430Z,66.50
2018-07-30T16:21:56.314Z,65.10
2018-07-30T16:24:24.896Z,66.40
2018-07-30T16:26:53.706Z,66.70
2018-07-30T16:29:22.400Z,66.60
2018-07-30T16:31:51.140Z,67.00
2018-07-30T16:34:19.933Z,67.70
2018-07-30T16:36:48.635Z,68.00
2018-07-30T16:39:17.291Z,67.70
2018-07-30T16:41:46.033Z,67.90
2018-07-30T16:44:15.453Z,68.30
2018-07-30T16:46:44.111Z,67.20
2018-07-30T16:49:12.775Z,66.40
2018-07-30T16:51:42.227Z,67.80
2018-07-30T16:54:10.868Z,67.90
2018-07-30T16:56:39.455Z,68.40
2018-07-30T16:59:08.112Z,68.20
2018-07-30T17:01:36.781Z,67.80
2018-07-30T17:04:05.605Z,67.30
2018-07-30T17:06:34.647Z,67.70
2018-07-30T17:09:03.309Z,67.60
2018-07-30T17:11:31.933Z,67.00
2018-07-30T17:14:00.589Z,68.60
2018-07-30T17:16:29.276Z,69.10
2018-07-30T17:18:57.888Z,68.00
2018-07-30T17:21:26.562Z,69.20
2018-07-30T17:23:55.265Z,69.20
2018-07-30T17:26:24.036Z,69.40
2018-07-30T17:28:52.827Z,70.60
2018-07-30T17:31:21.644Z,70.80
2018-07-30T17:33:50.554Z,70.50
2018-07-30T17:36:19.518Z,71.90
2018-07-30T17:38:48.541Z,70.70
2018-07-30T17:41:17.445Z,71.90
2018-07-30T17:43:46.501Z,71.30
2018-07-30T17:46:15.479Z,72.50
2018-07-30T17:48:44.428Z,72.30
2018-07-30T17:51:13.421Z,72.80
2018-07-30T17:56:10.629Z,72.60
2018-07-30T17:58:39.683Z,72.60
2018-07-30T18:01:08.330Z,72.80
2018-07-30T18:03:37.023Z,72.60
2018-07-30T18:06:05.610Z,72.60
2018-07-30T18:08:34.292Z,72.80
2018-07-30T18:11:03.321Z,73.20
2018-07-30T18:13:32.062Z,73.80
2018-07-30T18:16:00.648Z,73.80
2018-07-30T18:18:29.444Z,74.30
2018-07-30T18:20:58.071Z,74.60
2018-07-30T18:23:26.762Z,74.10
2018-07-30T18:25:55.512Z,73.90
2018-07-30T18:28:24.125Z,74.80
2018-07-30T18:30:52.729Z,74.20
2018-07-30T18:33:21.404Z,74.90
2018-07-30T18:35:50.102Z,75.60
2018-07-30T18:38:19.713Z,75.90
2018-07-30T18:40:48.381Z,75.90
2018-07-30T18:43:17.056Z,76.50
2018-07-30T18:45:45.650Z,77.50
2018-07-30T18:48:14.285Z,77.10
2018-07-30T18:50:42.889Z,77.50
2018-07-30T18:53:11.511Z,77.80
2018-07-30T18:55:40.184Z,78.20
2018-07-30T18:58:08.969Z,78.90
2018-07-30T19:00:37.629Z,79.20
2018-07-30T19:03:06.292Z,78.90
2018-07-30T19:05:35.115Z,78.90
2018-07-30T19:08:03.919Z,79.20
2018-07-30T19:10:32.572Z,79.40
2018-07-30T19:13:01.431Z,80.20
2018-07-30T19:15:30.293Z,81.70
2018-07-30T19:17:58.973Z,83.00
2018-07-30T19:20:27.688Z,83.40
2018-07-30T19:22:56.371Z,83.80
2018-07-30T19:25:25.068Z,84.30
2018-07-30T19:27:53.826Z,84.50
2018-07-30T19:30:23.154Z,85.20
2018-07-30T19:32:52.214Z,85.50
2018-07-30T19:35:20.962Z,85.80
2018-07-30T19:37:49.963Z,86.30
2018-07-30T19:40:19.109Z,87.00
2018-07-30T19:42:48.148Z,87.10
2018-07-30T19:45:17.127Z,87.70
2018-07-30T19:47:45.905Z,88.10
2018-07-30T19:50:14.886Z,88.80
2018-07-30T19:52:43.885Z,88.70
2018-07-30T19:55:12.674Z,89.20
2018-07-30T19:57:41.662Z,89.50
2018-07-30T20:00:10.660Z,90.00
2018-07-30T20:02:39.506Z,90.20
2018-07-30T20:05:08.864Z,90.30
2018-07-30T20:07:37.544Z,90.70
2018-07-30T20:10:06.535Z,90.90
2018-07-30T20:12:35.520Z,91.30
2018-07-30T20:15:04.625Z,91.40
2018-07-30T20:17:33.583Z,91.90
2018-07-30T20:20:02.561Z,93.70
2018-07-30T20:22:31.335Z,94.60
2018-07-30T20:25:00.519Z,95.90
2018-07-30T20:27:29.267Z,96.80
2018-07-30T20:29:58.309Z,97.30
2018-07-30T20:32:27.063Z,98.10
2018-07-30T20:34:56.622Z,98.70
2018-07-30T20:37:25.304Z,99.30
2018-07-30T20:39:53.969Z,99.80
2018-07-30T20:42:22.529Z,99.90
2018-07-30T20:44:51.271Z,99.90
2018-07-30T20:47:20.230Z,99.90
2018-07-30T20:49:48.964Z,99.90
2018-07-30T20:52:17.642Z,99.90
2018-07-30T20:54:46.484Z,99.90
2018-07-30T20:57:15.212Z,99.90
2018-07-30T20:59:44.027Z,99.90
2018-07-30T21:02:12.739Z,99.90
2018-07-30T21:04:41.518Z,99.90
2018-07-30T21:07:10.228Z,99.90
2018-07-30T21:09:38.918Z,99.90
2018-07-30T21:12:07.610Z,99.90
2018-07-30T21:14:36.413Z,99.90
2018-07-30T21:17:05.225Z,99.90
2018-07-30T21:19:33.887Z,99.90
2018-07-30T21:22:02.569Z,99.90
2018-07-30T21:24:31.187Z,99.90
2018-07-30T21:26:59.860Z,99.90
2018-07-30T21:29:28.519Z,99.90
2018-07-30T21:31:57.137Z,99.90
2018-07-30T21:34:25.791Z,99.90
2018-07-30T21:36:54.520Z,99.90
2018-07-30T21:39:24.127Z,99.90
2018-07-30T21:41:52.768Z,99.90
2018-07-30T21:44:21.534Z,99.90
2018-07-30T21:46:50.286Z,99.90
2018-07-30T21:49:18.988Z,99.90
2018-07-30T21:51:47.642Z,99.90
2018-07-30T21:54:16.274Z,99.90
2018-07-30T21:56:44.960Z,99.90
2018-07-30T21:59:13.601Z,99.90
2018-07-30T22:01:42.309Z,99.90
2018-07-30T22:04:10.933Z,99.90
2018-07-30T22:06:39.551Z,99.90
2018-07-30T22:09:09.291Z,99.90
2018-07-30T22:11:37.934Z,99.90
2018-07-30T22:14:06.946Z,99.90
2018-07-30T22:16:35.626Z,99.90
2018-07-30T22:19:04.314Z,99.90
2018-07-30T22:21:32.906Z,99.90
2018-07-30T22:24:01.531Z,99.90
2018-07-30T22:26:30.220Z,99.90
2018-07-30T22:28:58.873Z,99.90
2018-07-30T22:31:27.491Z,99.90
2018-07-30T22:33:56.169Z,99.90
2018-07-30T22:36:24.802Z,99.90
2018-07-30T22:38:53.479Z,99.90
2018-07-30T22:41:22.155Z,99.90
2018-07-30T22:43:50.805Z,99.90
2018-07-30T22:46:19.456Z,99.90
2018-07-30T22:48:48.052Z,99.90
2018-07-30T22:51:16.630Z,99.90
2018-07-30T22:53:45.229Z,99.90
2018-07-30T22:56:13.945Z,99.90
2018-07-30T22:58:42.527Z,99.90
2018-07-30T23:01:11.161Z,99.90
2018-07-30T23:03:39.794Z,99.90
2018-07-30T23:06:08.500Z,99.90
2018-07-30T23:08:37.136Z,99.90
2018-07-30T23:11:05.749Z,99.90
2018-07-30T23:13:34.390Z,99.90
2018-07-30T23:16:03.034Z,99.90
2018-07-30T23:18:31.616Z,99.90
2018-07-30T23:21:00.234Z,99.90
2018-07-30T23:23:28.834Z,99.90
2018-07-30T23:25:57.544Z,99.90
2018-07-30T23:28:26.126Z,99.90
2018-07-30T23:33:23.158Z,99.90
2018-07-30T23:35:51.806Z,99.90
2018-07-30T23:38:20.573Z,99.90
2018-07-30T23:40:49.217Z,99.90
2018-07-30T23:43:17.856Z,99.90
2018-07-30T23:45:46.478Z,99.90
2018-07-30T23:48:15.173Z,99.90
2018-07-30T23:50:43.811Z,99.90
2018-07-30T23:53:12.630Z,99.90
2018-07-30T23:58:09.644Z,99.90
